Time;durP1;ratioP1;P1;durP2;ratioP2;P2;SDS_P1;SDS_P2;PMS_P1;PMS_P2;Temp;Humidity;BMP_temperature;BMP_pressure;BME280_temperature;BME280_humidity;BME280_pressure;Samples;Min_cycle;Max_cycle;Signal;HPM_P1;HPM_P2
2021/12/25 00:01:55;;;;;;;0.10;0.10;;;;;;;7.68;100.00;99586.97;4975376;28;20221;-84
2021/12/25 00:04:23;;;;;;;0.10;0.10;;;;;;;7.63;100.00;99584.31;4958810;28;20235;-84
2021/12/25 00:06:51;;;;;;;0.00;0.00;;;;;;;7.66;100.00;99591.34;4972479;23;20246;-86
2021/12/25 00:09:20;;;;;;;0.10;0.10;;;;;;;7.60;100.00;99573.75;5002102;28;20218;-84
2021/12/25 00:11:48;;;;;;;0.10;0.10;;;;;;;7.60;100.00;99586.91;4997227;28;20208;-84
2021/12/25 00:14:16;;;;;;;0.00;0.00;;;;;;;7.61;100.00;99585.16;4995449;28;20203;-85
2021/12/25 00:16:45;;;;;;;0.10;0.10;;;;;;;7.61;100.00;99579.91;4997401;28;20224;-85
2021/12/25 00:19:13;;;;;;;0.00;0.00;;;;;;;7.53;100.00;99587.75;5026220;28;20234;-85
2021/12/25 00:21:42;;;;;;;0.10;0.10;;;;;;;7.47;100.00;99586.81;5026213;28;20212;-85
2021/12/25 00:24:10;;;;;;;0.17;0.17;;;;;;;7.47;100.00;99578.91;5025281;28;20231;-85
2021/12/25 00:27:02;;;;;;;0.00;0.00;;;;;;;7.51;100.00;99586.84;5009801;28;20223;-84
2021/12/25 00:35:02;;;;;;;0.00;0.00;;;;;;;7.58;100.00;99593.91;4992519;28;20196;-85
2021/12/25 00:37:30;;;;;;;0.65;0.65;;;;;;;7.52;100.00;99596.50;5025710;28;20239;-84
2021/12/25 00:39:58;;;;;;;0.00;0.00;;;;;;;7.45;100.00;99589.44;5009495;28;20204;-85
2021/12/25 00:42:27;;;;;;;0.10;0.10;;;;;;;7.35;100.00;99584.97;5025841;28;20204;-85
2021/12/25 00:44:55;;;;;;;0.00;0.00;;;;;;;7.35;100.00;99590.22;5009293;28;20247;-85
2021/12/25 00:47:24;;;;;;;0.20;0.20;;;;;;;7.35;100.00;99598.13;5009783;28;20235;-85
2021/12/25 00:49:53;;;;;;;0.00;0.00;;;;;;;7.15;100.00;99578.66;5009628;28;20208;-85
2021/12/25 00:52:21;;;;;;;0.00;0.00;;;;;;;7.07;100.00;99581.22;5012860;28;20203;-85
2021/12/25 00:54:49;;;;;;;0.00;0.00;;;;;;;7.05;100.00;99575.06;5029431;28;20208;-85
2021/12/25 00:57:18;;;;;;;0.10;0.10;;;;;;;7.02;100.00;99581.16;5012928;28;20230;-85
2021/12/25 00:59:46;;;;;;;0.00;0.00;;;;;;;6.92;100.00;99576.69;5029217;28;20211;-85
2021/12/25 01:02:14;;;;;;;0.00;0.00;;;;;;;6.85;100.00;99576.63;5012905;28;20217;-85
2021/12/25 01:04:43;;;;;;;0.10;0.10;;;;;;;6.70;100.00;99577.34;5012657;28;20236;-84
2021/12/25 01:07:11;;;;;;;0.00;0.00;;;;;;;6.65;100.00;99579.91;4996670;28;20245;-85
2021/12/25 01:09:40;;;;;;;0.00;0.00;;;;;;;6.69;100.00;99586.97;5012105;28;20251;-85
2021/12/25 01:12:09;;;;;;;0.10;0.10;;;;;;;6.53;100.00;99573.63;5012555;28;20216;-84
2021/12/25 01:14:45;;;;;;;0.00;0.00;;;;;;;6.56;100.00;99577.19;5012847;28;20287;-84
2021/12/25 01:48:45;;;;;;;0.10;0.10;;;7.20;99.90;;;7.05;100.00;99604.84;5023884;28;20210;-84
2021/12/25 01:51:13;;;;;;;0.10;0.10;;;7.20;99.90;;;7.11;100.00;99617.19;5012111;28;20215;-84
2021/12/25 01:53:42;;;;;;;0.03;0.03;;;;;;;7.10;100.00;99606.66;5028807;28;20212;-85
2021/12/25 01:56:10;;;;;;;0.10;0.10;;;;;;;7.11;100.00;99611.91;4995915;28;20223;-85
2021/12/25 01:58:38;;;;;;;0.05;0.05;;;;;;;7.10;100.00;99602.28;5011807;28;20215;-85
2021/12/25 02:01:08;;;;;;;0.00;0.00;;;7.30;99.90;;;7.08;100.00;99606.63;5011644;28;20216;-85
2021/12/25 02:03:38;;;;;;;0.00;0.00;;;7.30;99.90;;;7.11;100.00;99595.25;5011906;28;20208;-85
2021/12/25 02:06:11;;;;;;;0.10;0.10;;;7.30;99.90;;;7.13;100.00;99601.41;5011184;28;20267;-86
2021/12/25 02:08:42;;;;;;;0.00;0.00;;;7.30;99.90;;;7.10;100.00;99601.38;4991884;28;20213;-86
2021/12/25 02:11:13;;;;;;;0.10;0.10;;;7.40;99.90;;;7.10;100.00;99604.03;4976140;28;20205;-86
2021/12/25 02:13:43;;;;;;;0.00;0.00;;;7.40;99.90;;;7.09;100.00;99602.25;4992784;28;20211;-86
2021/12/25 02:16:22;;;;;;;0.00;0.00;;;;;;;7.10;100.00;99604.03;4980464;28;20262;-85
2021/12/25 02:21:42;;;;;;;0.00;0.00;;;;;;;7.09;100.00;99597.88;4997431;28;20204;-85
2021/12/25 02:24:12;;;;;;;0.00;0.00;;;7.40;99.90;;;7.11;100.00;99597.91;5011643;28;20212;-84
2021/12/25 02:26:44;;;;;;;0.00;0.00;;;7.40;99.90;;;7.12;100.00;99597.91;4995440;28;20250;-85
2021/12/25 02:29:13;;;;;;;0.00;0.00;;;;;;;7.11;100.00;99598.78;4994965;28;20226;-84
2021/12/25 02:31:42;;;;;;;0.00;0.00;;;;;;;7.13;100.00;99598.78;5011317;28;20689;-85
2021/12/25 02:34:12;;;;;;;0.10;0.10;;;;;;;7.11;100.00;99601.41;4995277;28;20204;-85
2021/12/25 02:36:41;;;;;;;0.10;0.10;;;;;;;7.12;100.00;99603.16;5011248;28;20223;-86
2021/12/25 02:39:10;;;;;;;0.00;0.00;;;;;;;7.12;100.00;99599.66;5011323;28;20204;-86
2021/12/25 02:41:39;;;;;;;0.00;0.00;;;;;;;7.11;100.00;99595.25;4978951;28;20212;-86
2021/12/25 02:44:08;;;;;;;0.00;0.00;;;;;;;7.12;100.00;99600.53;4979029;28;20207;-85
2021/12/25 02:46:44;;;;;;;0.00;0.00;;;;;;;7.11;100.00;99596.16;4994934;28;20231;-86
2021/12/25 02:49:13;;;;;;;0.05;0.05;;;;;;;7.09;100.00;99595.25;4994181;28;20693;-85
2021/12/25 02:51:45;;;;;;;0.00;0.00;;;7.40;99.90;;;7.04;100.00;99589.06;5011177;28;20219;-86
2021/12/25 02:54:14;;;;;;;0.00;0.00;;;;;;;7.03;100.00;99593.44;4995215;28;20208;-86
2021/12/25 02:56:43;;;;;;;0.00;0.00;;;;;;;7.04;100.00;99596.97;5011007;28;20228;-86
2021/12/25 02:59:13;;;;;;;0.00;0.00;;;;;;;7.03;100.00;99596.06;5011299;28;20204;-86
2021/12/25 03:02:17;;;;;;;0.10;0.10;;;7.30;99.90;;;7.02;100.00;99594.31;5013831;28;20223;-87
2021/12/25 03:04:48;;;;;;;0.10;0.10;;;7.30;99.90;;;7.03;100.00;99596.06;5011477;28;20220;-86
2021/12/25 03:07:17;;;;;;;0.10;0.10;;;;;;;7.05;100.00;99601.34;4994716;28;20251;-86
2021/12/25 03:09:48;;;;;;;0.00;0.00;;;;;;;7.03;100.00;99606.59;5011265;28;20200;-86
2021/12/25 03:12:25;;;;;;;0.00;0.00;;;;;;;7.04;100.00;99596.97;4994179;28;20207;-85
2021/12/25 03:15:55;;;;;;;0.20;0.20;;;;;;;7.04;100.00;99596.97;5011503;28;20214;-85
2021/12/25 03:17:51;;;;;;;0.00;0.00;;;;;;;6.99;100.00;99599.53;4977722;28;20219;-85
2021/12/25 03:20:20;;;;;;;0.10;0.10;;;;;;;6.99;100.00;99596.03;5011310;28;20585;-85
2021/12/25 03:22:48;;;;;;;0.00;0.00;;;;;;;6.99;100.00;99594.28;5010810;28;20208;-85
2021/12/25 03:25:20;;;;;;;0.10;0.10;;;;;;;6.97;100.00;99601.28;4993709;28;20211;-85
2021/12/25 03:27:51;;;;;;;0.00;0.00;;;;;;;6.96;100.00;99596.00;5010958;28;20219;-84
2021/12/25 03:30:21;;;;;;;0.10;0.10;;;;;;;6.92;100.00;99591.56;5010875;28;20215;-84
2021/12/25 03:32:50;;;;;;;0.10;0.10;;;;;;;6.92;100.00;99594.19;4993730;28;20208;-84
2021/12/25 03:35:19;;;;;;;0.20;0.20;;;;;;;6.86;100.00;99589.78;5009973;28;20219;-85
2021/12/25 03:37:47;;;;;;;0.00;0.00;;;;;;;6.81;100.00;99590.59;5011383;28;20212;-84
2021/12/25 03:40:16;;;;;;;0.00;0.00;;;;;;;6.79;100.00;99576.56;5010851;28;20212;-85
2021/12/25 03:42:45;;;;;;;0.00;0.00;;;;;;;6.81;100.00;99577.44;5010310;28;20582;-85
2021/12/25 03:45:13;;;;;;;0.10;0.10;;;;;;;6.78;100.00;99586.19;5010561;28;20212;-85
2021/12/25 03:47:42;;;;;;;0.10;0.10;;;;;;;6.81;100.00;99588.84;5009893;28;20231;-84
2021/12/25 03:58:32;;;;;;;0.00;0.00;;;;;;;6.82;100.00;99582.72;4981086;28;20211;-84
2021/12/25 04:01:14;;;;;;;0.00;0.00;;;7.10;99.90;;;6.82;100.00;99585.34;5010831;28;20211;-82
2021/12/25 04:04:00;;;;;;;0.10;0.10;;;;;;;6.79;100.00;99593.19;5012107;28;20204;-84
2021/12/25 04:06:29;;;;;;;0.10;0.10;;;;;;;6.79;100.00;99595.81;4996523;28;20236;-83
2021/12/25 04:08:58;;;;;;;0.00;0.00;;;;;;;6.83;100.00;99586.22;5010618;28;20218;-84
2021/12/25 04:11:34;;;;;;;0.00;0.00;;;;;;;6.84;100.00;99586.25;5010395;28;20210;-84
2021/12/25 04:14:03;;;;;;;0.10;0.10;;;;;;;6.79;100.00;99590.56;5011418;28;20724;-84
2021/12/25 04:16:31;;;;;;;0.10;0.10;;;;;;;6.65;100.00;99579.03;4977537;28;20230;-84
2021/12/25 04:19:01;;;;;;;0.00;0.00;;;;;;;6.75;100.00;99586.16;4993351;28;20212;-84
2021/12/25 04:21:30;;;;;;;0.05;0.05;;;;;;;6.76;100.00;99587.03;4961761;28;20208;-84
2021/12/25 04:23:59;;;;;;;0.00;0.00;;;7.20;99.90;;;6.78;100.00;99585.28;4993709;28;20212;-84
2021/12/25 04:26:27;;;;;;;0.00;0.00;;;;;;;6.81;100.00;99588.84;4964718;28;20686;-83
2021/12/25 04:31:48;;;;;;;0.10;0.10;;;;;;;6.77;100.00;99588.78;5013951;28;20212;-84
2021/12/25 04:47:55;;;;;;;0.10;0.10;;;;;;;6.68;100.00;99592.19;5016323;28;20216;-84
2021/12/25 04:49:02;;;;;;;0.00;0.00;;;;;;;6.72;100.00;99597.50;5015765;28;20231;-83
2021/12/25 05:02:41;;;;;;;0.10;0.10;;;;;;;6.74;100.00;99614.16;5015899;28;20211;-84
2021/12/25 05:05:20;;;;;;;0.10;0.10;;;;;;;6.74;100.00;99610.66;4969475;28;20223;-84
2021/12/25 05:08:07;;;;;;;0.10;0.10;;;;;;;6.80;100.00;99617.72;5012838;28;20236;-84
2021/12/25 05:10:35;;;;;;;0.10;0.10;;;7.20;99.90;;;6.81;100.00;99616.88;4964065;28;20582;-83
2021/12/25 05:13:04;;;;;;;0.70;0.70;;;;;;;6.81;100.00;99612.50;5012747;28;20212;-84
2021/12/25 05:15:33;;;;;;;0.10;0.10;;;;;;;6.73;100.00;99612.41;4996033;28;20215;-84
2021/12/25 05:18:01;;;;;;;0.00;0.00;;;;;;;6.67;100.00;99608.81;4995874;28;20211;-83
2021/12/25 05:20:30;;;;;;;0.20;0.20;;;;;;;6.77;100.00;99618.56;4964515;28;20230;-84
2021/12/25 05:22:58;;;;;;;0.10;0.10;;;;;;;6.77;100.00;99615.06;4996326;28;20204;-84
2021/12/25 05:25:27;;;;;;;0.10;0.10;;;7.00;99.90;;;6.71;100.00;99608.88;5012651;28;20587;-83
2021/12/25 05:27:59;;;;;;;0.10;0.10;;;;;;;6.77;100.00;99617.69;4995836;28;20232;-83
2021/12/25 05:30:30;;;;;;;0.00;0.00;;;7.20;99.90;;;6.79;100.00;99618.59;4996164;28;20208;-84
2021/12/25 05:33:19;;;;;;;0.00;0.00;;;;;;;6.77;100.00;99615.06;4968794;28;20234;-84
2021/12/25 05:36:04;;;;;;;0.00;0.00;;;7.20;99.90;;;6.79;100.00;99615.97;5013825;28;20228;-84
2021/12/25 05:38:42;;;;;;;0.00;0.00;;;;;;;6.73;100.00;99611.53;4995166;28;20223;-84
2021/12/25 05:41:27;;;;;;;0.10;0.10;;;7.10;99.90;;;6.72;100.00;99612.38;4967558;28;20214;-84
2021/12/25 05:43:56;;;;;;;0.00;0.00;;;;;;;6.72;100.00;99615.00;4995890;28;20212;-84
2021/12/25 05:46:51;;;;;;;0.08;0.08;;;;;;;6.72;100.00;99615.91;4969396;28;20232;-84
2021/12/25 05:49:20;;;;;;;0.10;0.10;;;;;;;6.69;100.00;99618.50;4963114;28;20223;-84
2021/12/25 05:52:07;;;;;;;0.00;0.00;;;;;;;6.64;100.00;99614.94;5011815;28;20204;-84
2021/12/25 05:55:09;;;;;;;0.00;0.00;;;;;;;6.63;100.00;99605.28;4972637;28;20234;-84
2021/12/25 05:57:43;;;;;;;0.00;0.00;;;;;;;6.59;100.00;99599.97;4995589;28;20227;-84
2021/12/25 06:00:32;;;;;;;0.00;0.00;;;;;;;6.64;100.00;99607.03;4998427;28;20212;-84
2021/12/25 06:03:00;;;;;;;0.20;0.20;;;7.30;99.90;;;6.61;100.00;99607.00;5011750;28;20208;-85
2021/12/25 06:05:34;;;;;;;0.10;0.10;;;;;;;6.59;100.00;99605.22;5026048;28;20234;-84
2021/12/25 06:08:04;;;;;;;0.00;0.00;;;;;;;6.57;100.00;99602.59;5003874;23;20232;-83
2021/12/25 06:10:32;;;;;;;0.00;0.00;;;;;;;6.54;100.00;99605.19;4962727;28;20215;-83
2021/12/25 06:13:02;;;;;;;0.10;0.10;;;7.00;99.90;;;6.52;100.00;99606.91;4979021;28;20212;-83
2021/12/25 06:15:36;;;;;;;0.00;0.00;;;7.00;99.90;;;6.51;100.00;99602.50;4963573;28;20219;-84
2021/12/25 06:18:15;;;;;;;0.05;0.05;;;;;;;6.55;100.00;99606.06;4964360;28;20223;-83
2021/12/25 06:20:55;;;;;;;0.10;0.10;;;;;;;6.57;100.00;99606.97;4997192;28;20204;-84
2021/12/25 06:23:39;;;;;;;0.52;0.52;;;;;;;6.61;100.00;99611.38;4980976;28;20208;-84
2021/12/25 06:26:50;;;;;;;0.10;0.10;;;;;;;6.57;100.00;99614.84;4975031;28;20235;-82
2021/12/25 06:29:31;;;;;;;0.00;0.00;;;;;;;6.59;100.00;99615.75;4980766;28;20215;-83
2021/12/25 06:32:16;;;;;;;0.10;0.10;;;;;;;6.61;100.00;99619.25;4980130;28;20210;-83
2021/12/25 06:35:07;;;;;;;0.00;0.00;;;6.90;99.90;;;6.62;100.00;99624.53;4966341;28;20208;-84
2021/12/25 06:37:54;;;;;;;0.10;0.10;;;;;;;6.67;100.00;99632.47;4984335;28;20228;-83
2021/12/25 06:40:48;;;;;;;0.10;0.10;;;;;;;6.66;100.00;99628.09;4982572;28;20223;-84
2021/12/25 06:43:16;;;;;;;0.10;0.10;;;;;;;6.67;100.00;99632.47;4979131;28;20223;-83
2021/12/25 06:45:44;;;;;;;0.00;0.00;;;;;;;6.65;100.00;99640.34;4978867;28;20203;-83
2021/12/25 06:48:16;;;;;;;0.85;0.85;;;;;;;6.63;100.00;99644.69;4979070;28;20223;-84
2021/12/25 06:51:04;;;;;;;0.10;0.10;;;;;;;6.64;100.00;99642.94;4968448;28;20208;-84
2021/12/25 06:53:56;;;;;;;0.10;0.10;;;;;;;6.63;100.00;99651.69;4965921;28;20200;-83
2021/12/25 06:56:51;;;;;;;0.00;0.00;;;;;;;6.61;100.00;99654.28;4968860;28;20231;-83
2021/12/25 06:59:25;;;;;;;0.10;0.10;;;;;;;6.62;100.00;99663.06;4979362;28;20230;-82
2021/12/25 07:01:53;;;;;;;0.10;0.10;;;;;;;6.59;100.00;99656.03;4978451;28;20670;-83
2021/12/25 07:04:40;;;;;;;0.10;0.10;;;;;;;6.62;100.00;99658.69;4997725;28;20208;-84
2021/12/25 07:07:41;;;;;;;0.00;0.00;;;;;;;6.62;100.00;99665.69;4969781;28;20239;-83
2021/12/25 07:10:26;;;;;;;0.00;0.00;;;6.90;99.90;;;6.61;100.00;99662.19;4980529;28;20218;-82
2021/12/25 07:13:07;;;;;;;0.10;0.10;;;;;;;6.65;100.00;99663.97;4949819;28;20212;-83
2021/12/25 07:15:39;;;;;;;0.00;0.00;;;;;;;6.64;100.00;99669.22;4984636;28;20225;-83
2021/12/25 07:18:25;;;;;;;0.52;0.52;;;;;;;6.62;100.00;99678.81;4999971;28;20226;-84
2021/12/25 07:21:20;;;;;;;0.00;0.00;;;;;;;6.60;100.00;99672.66;4998088;28;20226;-84
2021/12/25 07:24:09;;;;;;;0.10;0.10;;;;;;;6.59;100.00;99682.28;5013049;28;20212;-84
2021/12/25 07:26:47;;;;;;;0.00;0.00;;;;;;;6.63;100.00;99683.22;4996968;28;20223;-84
2021/12/25 07:29:40;;;;;;;0.10;0.10;;;;;;;6.64;100.00;99680.59;4984139;28;20203;-83
2021/12/25 07:32:09;;;;;;;0.00;0.00;;;;;;;6.65;100.00;99682.38;4997162;28;20218;-83
2021/12/25 07:34:37;;;;;;;0.00;0.00;;;;;;;6.64;100.00;99687.59;4980696;28;20207;-83
2021/12/25 07:37:05;;;;;;;0.00;0.00;;;;;;;6.63;100.00;99685.84;4997389;28;20231;-84
2021/12/25 07:39:34;;;;;;;0.10;0.10;;;;;;;6.66;100.00;99697.28;4997509;28;20202;-83
2021/12/25 07:42:02;;;;;;;0.10;0.10;;;6.80;99.90;;;6.63;100.00;99686.72;5013943;28;20214;-83
2021/12/25 07:44:55;;;;;;;0.10;0.10;;;;;;;6.65;100.00;99698.13;4999898;28;20207;-83
2021/12/25 07:47:24;;;;;;;0.00;0.00;;;;;;;6.66;100.00;99707.78;4996888;28;20230;-83
2021/12/25 07:49:52;;;;;;;0.00;0.00;;;;;;;6.65;100.00;99706.00;4980587;28;20218;-83
2021/12/25 07:52:20;;;;;;;0.10;0.10;;;;;;;6.65;100.00;99703.38;4997468;28;20207;-83
2021/12/25 07:54:48;;;;;;;0.10;0.10;;;;;;;6.67;100.00;99721.81;4980624;28;20211;-84
2021/12/25 07:57:16;;;;;;;0.10;0.10;;;;;;;6.66;100.00;99717.41;5030258;28;20226;-83
2021/12/25 07:59:45;;;;;;;0.10;0.10;;;;;;;6.64;100.00;99722.63;4997259;28;20210;-84
2021/12/25 08:02:13;;;;;;;0.03;0.03;;;;;;;6.65;100.00;99729.66;5018010;28;20207;-83
2021/12/25 08:04:41;;;;;;;0.00;0.00;;;;;;;6.71;100.00;99727.13;4985025;28;20205;-83
2021/12/25 08:07:10;;;;;;;0.10;0.10;;;;;;;6.72;100.00;99733.25;5001290;28;20246;-83
2021/12/25 08:09:38;;;;;;;0.00;0.00;;;;;;;6.72;100.00;99736.75;5000687;28;20227;-83
2021/12/25 08:12:07;;;;;;;0.00;0.00;;;7.00;99.90;;;6.72;100.00;99734.13;4984621;28;20234;-83
2021/12/25 08:14:35;;;;;;;0.10;0.10;;;;;;;6.72;100.00;99736.75;5017620;28;20203;-83
2021/12/25 08:17:04;;;;;;;0.10;0.10;;;7.70;99.90;;;6.74;100.00;99742.91;4984360;28;20234;-84
2021/12/25 08:20:02;;;;;;;0.75;0.75;;;;;;;6.77;100.00;99747.34;4997200;28;20208;-83
2021/12/25 08:22:50;;;;;;;0.00;0.00;;;;;;;6.79;100.00;99748.25;4984093;28;20208;-83
2021/12/25 08:25:37;;;;;;;0.00;0.00;;;;;;;6.81;100.00;99750.88;5000030;28;20208;-83
2021/12/25 08:28:24;;;;;;;0.10;0.10;;;;;;;6.81;100.00;99756.13;4970431;28;20223;-83
2021/12/25 08:31:21;;;;;;;0.00;0.00;;;;;;;6.83;100.00;99751.78;4960947;28;20217;-83
2021/12/25 08:34:08;;;;;;;0.05;0.05;;;7.10;99.90;;;6.86;100.00;99762.34;4970143;28;20207;-83
2021/12/25 08:37:19;;;;;;;0.10;0.10;;;;;;;6.86;100.00;99765.84;4966499;28;20228;-83
2021/12/25 08:39:47;;;;;;;0.00;0.00;;;;;;;6.86;100.00;99767.59;4949725;28;20218;-83
2021/12/25 08:42:15;;;;;;;0.00;0.00;;;7.10;99.90;;;6.88;100.00;99768.50;4949083;28;20218;-83
2021/12/25 08:47:29;;;;;;;0.00;0.00;;;7.20;99.90;;;6.94;100.00;99765.94;4998836;28;20239;-83
2021/12/25 08:49:58;;;;;;;0.10;0.10;;;7.20;99.90;;;6.96;100.00;99775.63;4964446;28;20238;-83
2021/12/25 08:52:26;;;;;;;0.00;0.00;;;;;;;6.96;100.00;99778.25;4949599;28;20211;-83
2021/12/25 08:54:55;;;;;;;0.00;0.00;;;;;;;6.97;100.00;99776.50;4965169;28;20212;-83
2021/12/25 08:57:26;;;;;;;1.10;1.10;;;;;;;6.98;100.00;99776.53;4965487;28;20234;-82
2021/12/25 08:59:56;;;;;;;0.10;0.10;;;;;;;6.98;100.00;99780.91;4980355;28;20204;-83
2021/12/25 09:02:24;;;;;;;0.00;0.00;;;7.40;99.90;;;7.00;100.00;99787.94;4949362;28;20215;-83
2021/12/25 09:04:53;;;;;;;0.00;0.00;;;;;;;7.01;100.00;99796.72;4964119;28;20292;-83
2021/12/25 09:07:21;;;;;;;0.03;0.03;;;;;;;7.02;100.00;99794.09;4979912;28;20239;-83
2021/12/25 09:09:49;;;;;;;0.00;0.00;;;;;;;7.04;100.00;99804.63;4980585;28;20232;-83
2021/12/25 09:12:20;;;;;;;0.10;0.10;;;;;;;7.01;100.00;99802.84;4963018;28;20218;-83
2021/12/25 09:14:48;;;;;;;0.10;0.10;;;;;;;7.00;100.00;99808.09;4980887;28;20214;-84
2021/12/25 09:17:17;;;;;;;0.00;0.00;;;;;;;7.04;100.00;99809.88;4967132;28;20223;-83
2021/12/25 09:19:45;;;;;;;0.00;0.00;;;;;;;7.04;100.00;99817.78;4999826;28;20207;-83
2021/12/25 09:22:13;;;;;;;0.08;0.08;;;;;;;7.01;100.00;99812.47;4983298;28;20207;-83
2021/12/25 09:24:42;;;;;;;0.10;0.10;;;;;;;6.97;100.00;99816.81;4999631;28;20214;-83
2021/12/25 09:27:10;;;;;;;0.08;0.08;;;;;;;7.00;100.00;99823.84;4982915;28;20725;-83
2021/12/25 09:29:38;;;;;;;0.10;0.10;;;;;;;6.96;100.00;99828.19;5015784;28;20234;-83
2021/12/25 09:32:07;;;;;;;0.00;0.00;;;;;;;6.97;100.00;99832.59;4998890;28;20208;-84
2021/12/25 09:34:35;;;;;;;0.10;0.10;;;;;;;6.94;100.00;99823.78;4999549;28;20234;-84
2021/12/25 09:37:03;;;;;;;0.10;0.10;;;7.20;99.90;;;6.90;100.00;99816.72;5015273;28;20701;-84
2021/12/25 09:39:31;;;;;;;0.00;0.00;;;;;;;6.82;100.00;99808.72;4998828;28;20230;-83
2021/12/25 09:42:00;;;;;;;0.10;0.10;;;;;;;6.79;100.00;99813.03;4983455;28;20214;-84
2021/12/25 09:44:28;;;;;;;0.00;0.00;;;;;;;6.81;100.00;99816.59;4999652;28;20210;-84
2021/12/25 09:46:57;;;;;;;0.10;0.10;;;7.10;99.90;;;6.73;100.00;99811.22;4998982;28;20231;-83
2021/12/25 09:49:25;;;;;;;0.08;0.08;;;;;;;6.69;100.00;99807.66;4983183;28;20234;-82
2021/12/25 09:51:53;;;;;;;0.10;0.10;;;;;;;6.74;100.00;99812.97;4999355;28;20211;-83
2021/12/25 09:54:22;;;;;;;0.00;0.00;;;;;;;6.73;100.00;99808.59;4982978;28;20207;-83
2021/12/25 09:56:53;;;;;;;0.00;0.00;;;;;;;6.72;100.00;99815.59;4999128;28;20234;-83
2021/12/25 09:59:21;;;;;;;0.00;0.00;;;;;;;6.66;100.00;99812.88;4983017;28;20218;-83
2021/12/25 10:01:53;;;;;;;0.00;0.00;;;6.90;99.90;;;6.61;100.00;99809.28;4999006;28;20207;-83
2021/12/25 10:05:00;;;;;;;0.10;0.10;;;6.80;99.90;;;6.54;100.00;99801.31;5015429;28;20218;-84
2021/12/25 10:07:30;;;;;;;0.10;0.10;;;6.80;99.90;;;6.50;100.00;99804.72;4939416;28;20240;-83
2021/12/25 10:10:13;;;;;;;0.10;0.10;;;6.70;99.90;;;6.50;100.00;99805.63;4939197;28;20245;-83
2021/12/25 10:12:45;;;;;;;0.10;0.10;;;6.70;99.90;;;6.47;100.00;99800.28;4991637;28;20211;-83
2021/12/25 10:15:25;;;;;;;0.10;0.10;;;6.70;99.90;;;6.29;100.00;99794.75;4980459;28;20214;-83
2021/12/25 10:17:56;;;;;;;0.10;0.10;;;6.60;99.90;;;6.25;100.00;99788.56;4994979;28;20223;-83
2021/12/25 10:20:32;;;;;;;0.10;0.10;;;6.50;99.90;;;6.05;100.00;99775.13;4963346;28;20204;-83
2021/12/25 10:23:15;;;;;;;0.00;0.00;;;6.40;99.90;;;5.98;100.00;99767.13;4979452;28;20208;-82
2021/12/25 10:25:53;;;;;;;0.00;0.00;;;6.20;99.90;;;5.91;100.00;99754.75;4979678;28;20223;-82
2021/12/25 10:28:32;;;;;;;0.10;0.10;;;6.30;99.90;;;5.96;100.00;99758.34;4963540;28;20215;-83
2021/12/25 10:31:14;;;;;;;0.10;0.10;;;6.20;99.90;;;5.87;100.00;99766.03;4978513;28;20589;-82
2021/12/25 10:33:52;;;;;;;0.10;0.10;;;6.10;99.90;;;5.69;100.00;99745.59;4978989;28;20215;-83
2021/12/25 10:36:28;;;;;;;0.00;0.00;;;5.90;99.90;;;5.59;100.00;99738.44;4962757;28;20231;-82
2021/12/25 10:39:02;;;;;;;0.10;0.10;;;5.90;99.90;;;5.56;100.00;99735.75;4978452;28;20211;-83
2021/12/25 10:41:34;;;;;;;0.10;0.10;;;5.90;99.90;;;5.51;100.00;99734.78;4994718;28;20220;-82
2021/12/25 10:44:35;;;;;;;0.00;0.00;;;5.80;99.90;;;5.28;100.00;99724.75;4993721;28;20208;-82
2021/12/25 10:47:27;;;;;;;0.10;0.10;;;5.70;99.90;;;5.22;100.00;99724.66;4978475;28;20219;-82
2021/12/25 10:50:12;;;;;;;0.00;0.00;;;5.60;99.90;;;5.24;100.00;99717.69;4962374;28;20238;-81
2021/12/25 10:52:46;;;;;;;0.10;0.10;;;5.50;99.90;;;5.09;100.00;99714.75;4994343;28;20609;-82
2021/12/25 10:55:25;;;;;;;0.10;0.10;;;5.40;99.90;;;4.97;100.00;99706.66;4963263;28;20195;-83
2021/12/25 10:57:58;;;;;;;0.10;0.10;;;5.30;99.90;;;4.89;100.00;99693.41;4947093;28;20234;-81
2021/12/25 11:00:33;;;;;;;0.10;0.10;;;5.00;99.90;;;4.83;100.00;99693.28;4980018;28;20218;-82
2021/12/25 11:03:08;;;;;;;0.10;0.10;;;5.10;99.90;;;4.72;100.00;99690.44;4979211;28;20212;-82
2021/12/25 11:05:47;;;;;;;0.10;0.10;;;5.10;99.90;;;4.77;100.00;99693.16;4979097;28;20590;-82
2021/12/25 11:08:23;;;;;;;0.10;0.10;;;4.80;99.90;;;4.71;100.00;99680.81;4978274;28;20243;-83
2021/12/25 11:11:06;;;;;;;0.10;0.10;;;5.00;99.90;;;4.69;100.00;99679.03;4979141;28;20258;-83
2021/12/25 11:13:51;;;;;;;0.10;0.10;;;5.00;99.90;;;4.66;100.00;99676.34;4979299;28;20207;-83
2021/12/25 11:16:36;;;;;;;0.00;0.00;;;5.00;99.90;;;4.73;100.00;99680.84;4989550;28;20223;-83
2021/12/25 11:19:27;;;;;;;0.10;0.10;;;5.00;99.90;;;4.81;100.00;99690.63;4982441;28;20207;-83
2021/12/25 11:21:59;;;;;;;0.10;0.10;;;5.00;99.90;;;4.65;100.00;99672.84;5000049;28;20234;-83
2021/12/25 11:24:38;;;;;;;0.10;0.10;;;5.00;99.90;;;4.56;100.00;99672.66;4981887;28;20207;-83
2021/12/25 11:27:08;;;;;;;0.10;0.10;;;4.90;99.90;;;4.53;100.00;99667.34;4981028;28;20226;-83
2021/12/25 11:29:38;;;;;;;0.10;0.10;;;4.80;99.90;;;4.41;100.00;99656.63;4964881;28;20314;-83
2021/12/25 11:32:16;;;;;;;0.10;0.10;;;4.80;99.90;;;4.51;100.00;99655.97;5013038;28;20203;-83
2021/12/25 11:34:44;;;;;;;0.10;0.10;;;;;;;4.40;100.00;99647.00;4966017;28;20206;-83
2021/12/25 11:37:13;;;;;;;0.10;0.10;;;;;;;4.33;100.00;99639.88;4980874;28;20227;-83
2021/12/25 11:39:43;;;;;;;0.10;0.10;;;4.70;99.90;;;4.34;100.00;99649.50;4997750;28;20214;-83
2021/12/25 11:42:12;;;;;;;0.10;0.10;;;;;;;4.36;100.00;99643.44;4965440;28;20202;-83
2021/12/25 11:44:48;;;;;;;0.10;0.10;;;4.60;99.90;;;4.21;100.00;99631.75;4997332;28;20207;-83
2021/12/25 11:47:46;;;;;;;0.20;0.20;;;4.50;99.90;;;4.12;100.00;99617.63;4997259;28;20227;-83
2021/12/25 11:50:15;;;;;;;0.10;0.10;;;;;;;4.08;100.00;99614.91;4996421;28;20234;-83
2021/12/25 11:52:55;;;;;;;0.10;0.10;;;4.40;99.90;;;4.13;100.00;99618.50;4996913;28;20207;-82
2021/12/25 11:58:49;;;;;;;0.10;0.10;;;4.20;99.90;;;4.09;100.00;99619.28;4996730;28;20238;-82
2021/12/25 12:01:30;;;;;;;0.10;0.10;;;4.30;99.90;;;4.06;100.00;99619.22;5013231;28;20207;-82
2021/12/25 12:04:12;;;;;;;0.10;0.10;;;4.40;99.90;;;3.98;100.00;99615.56;4997295;28;20207;-82
2021/12/25 12:06:51;;;;;;;0.10;0.10;;;4.30;99.90;;;3.98;100.00;99613.81;4997925;28;20227;-82
2021/12/25 12:09:45;;;;;;;2.05;1.95;;;4.20;99.90;;;3.97;100.00;99611.19;5012730;28;20214;-82
2021/12/25 12:12:42;;;;;;;0.20;0.20;;;4.30;99.90;;;3.91;100.00;99617.16;4923076;28;20210;-82
2021/12/25 12:15:55;;;;;;;0.10;0.10;;;3.90;99.90;;;3.92;100.00;99616.31;5009328;28;20203;-82
2021/12/25 12:18:44;;;;;;;0.13;0.13;;;;;;;3.89;100.00;99610.09;4983829;28;20212;-82
2021/12/25 12:21:18;;;;;;;0.10;0.10;;;4.10;99.90;;;3.78;100.00;99615.09;4977907;28;20205;-82
2021/12/25 12:26:44;;;;;;;0.20;0.20;;;4.00;99.90;;;3.79;100.00;99622.06;4994000;28;20224;-83
2021/12/25 12:29:14;;;;;;;0.20;0.20;;;4.00;99.90;;;3.79;100.00;99620.34;4993023;28;20204;-82
2021/12/25 12:31:48;;;;;;;0.20;0.20;;;4.00;99.90;;;3.73;100.00;99622.81;4945117;28;20262;-82
2021/12/25 12:34:40;;;;;;;0.10;0.10;;;4.00;99.90;;;3.84;100.00;99625.69;4977638;28;20215;-82
2021/12/25 12:37:14;;;;;;;1.33;1.33;;;3.90;99.90;;;3.81;100.00;99636.97;4961326;28;20219;-82
2021/12/25 12:40:00;;;;;;;0.10;0.10;;;4.00;99.90;;;3.68;100.00;99627.06;4976784;28;20204;-83
2021/12/25 12:42:41;;;;;;;0.20;0.20;;;4.10;99.90;;;3.74;100.00;99642.00;5009682;28;20221;-83
2021/12/25 12:45:12;;;;;;;0.10;0.10;;;4.10;99.90;;;3.65;100.00;99626.09;4993292;28;20297;-82
2021/12/25 12:47:41;;;;;;;0.17;0.17;;;3.90;99.90;;;3.67;100.00;99632.25;4981127;28;20224;-82
2021/12/25 12:50:11;;;;;;;0.10;0.10;;;4.10;99.90;;;3.55;100.00;99627.63;4965024;28;20231;-82
2021/12/25 12:52:41;;;;;;;0.10;0.10;;;3.80;99.90;;;3.53;100.00;99637.16;4965682;28;20211;-82
2021/12/25 12:55:32;;;;;;;0.10;0.10;;;3.40;99.90;;;3.49;100.00;99638.81;4981088;28;20219;-83
2021/12/25 12:58:21;;;;;;;0.20;0.20;;;3.60;99.90;;;3.48;100.00;99639.66;4964779;28;20231;-82
2021/12/25 13:01:00;;;;;;;0.10;0.10;;;4.00;99.90;;;3.54;100.00;99641.53;4981027;28;20208;-82
2021/12/25 13:03:30;;;;;;;0.17;0.17;;;3.70;99.90;;;3.46;100.00;99643.06;4948997;28;20204;-82
2021/12/25 13:06:04;;;;;;;0.30;0.30;;;3.70;99.90;;;3.44;100.00;99648.25;4980547;28;20211;-82